Time;durP1;ratioP1;P1;durP2;ratioP2;P2;SDS_P1;SDS_P2;PMS_P1;PMS_P2;Temp;Humidity;BMP_temperature;BMP_pressure;BME280_temperature;BME280_humidity;BME280_pressure;Samples;Min_cycle;Max_cycle;Signal;HPM_P1;HPM_P2
2023/06/30 00:00:12;;;;;;;9.32;3.53;;;;;;;14.99;100.00;101356.94;4918497;29;20062;-81
2023/06/30 00:02:43;;;;;;;9.43;4.18;;;;;;;14.95;100.00;101352.53;4948707;28;20525;-80
2023/06/30 00:05:10;;;;;;;11.48;3.80;;;;;;;14.92;100.00;101355.22;4963621;28;20426;-80
2023/06/30 00:07:37;;;;;;;7.80;3.92;;;;;;;14.91;100.00;101361.41;4944188;28;20089;-80
2023/06/30 00:10:06;;;;;;;9.45;4.45;;;;;;;14.86;100.00;101355.25;4944865;29;20070;-80
2023/06/30 00:12:34;;;;;;;15.02;4.15;;;;;;;14.85;100.00;101348.19;4926528;29;20079;-80
2023/06/30 00:15:02;;;;;;;7.07;3.00;;;;;;;14.80;100.00;101351.75;4915437;29;20047;-80
2023/06/30 00:17:29;;;;;;;11.85;4.50;;;;;;;14.77;100.00;101367.69;4979604;28;20502;-80
2023/06/30 00:19:57;;;;;;;5.93;3.35;;;;;;;14.72;100.00;101356.22;4921260;29;20110;-81
2023/06/30 00:22:25;;;;;;;4.63;2.80;;;;;;;14.70;100.00;101355.34;4911786;28;20055;-80
2023/06/30 00:24:58;;;;;;;6.03;3.25;;;;;;;14.66;100.00;101358.91;4957172;28;20521;-79
2023/06/30 00:27:26;;;;;;;9.02;3.42;;;;;;;14.61;100.00;101366.00;4916823;29;20055;-80
2023/06/30 00:29:53;;;;;;;7.80;3.72;;;;;;;14.58;100.00;101366.03;4952089;28;20062;-80
2023/06/30 00:32:21;;;;;;;15.52;4.38;;;;;;;14.57;100.00;101358.94;4973780;28;20114;-81
2023/06/30 00:34:50;;;;;;;9.13;3.03;;;;;;;14.53;100.00;101355.41;4967859;28;20051;-80
2023/06/30 00:37:17;;;;;;;15.75;4.10;;;;;;;14.51;100.00;101356.31;4918300;28;20518;-80
2023/06/30 00:39:45;;;;;;;9.77;4.13;;;;;;;14.47;100.00;101354.56;4923319;28;20051;-80
2023/06/30 00:42:12;;;;;;;9.63;3.40;;;;;;;14.40;100.00;101362.56;4929480;29;20050;-80
2023/06/30 00:44:40;;;;;;;7.72;3.97;;;;;;;14.36;100.00;101354.59;4951716;28;20039;-80
2023/06/30 00:47:07;;;;;;;10.07;3.53;;;;;;;14.28;100.00;101354.63;4975751;28;20415;-80
2023/06/30 00:49:36;;;;;;;17.85;4.53;;;;;;;14.24;100.00;101345.81;4934789;28;20047;-79
2023/06/30 00:52:04;;;;;;;13.27;4.53;;;;;;;14.20;100.00;101356.44;4961746;28;20043;-80
2023/06/30 00:54:31;;;;;;;8.60;3.90;;;;;;;14.15;100.00;101355.56;4891004;29;20046;-82
2023/06/30 00:56:59;;;;;;;11.57;4.07;;;;;;;14.08;100.00;101351.16;4954728;28;20048;-80
2023/06/30 00:59:27;;;;;;;9.73;4.57;;;;;;;14.02;100.00;101350.28;4936229;28;20066;-81
2023/06/30 01:02:12;;;;;;;11.75;3.83;;;;;;;13.98;100.00;101337.94;4947327;29;20063;-80
2023/06/30 01:05:06;;;;;;;12.57;4.10;;;;;;;13.98;100.00;101347.66;4936647;28;20051;-80
2023/06/30 01:07:48;;;;;;;8.52;4.22;;;;;;;13.95;100.00;101351.22;4942924;29;20051;-80
2023/06/30 01:10:22;;;;;;;10.57;4.07;;;;;;;13.93;100.00;101353.00;4903130;28;20426;-80
2023/06/30 01:12:50;;;;;;;7.63;3.97;;;;;;;13.92;100.00;101350.34;4960183;28;20059;-80
2023/06/30 01:15:18;;;;;;;12.38;5.22;;;;;;;13.93;100.00;101342.41;4933445;28;20742;-80
2023/06/30 01:17:59;;;;;;;6.82;3.83;;;;;;;13.94;100.00;101352.09;4960143;28;20042;-80
2023/06/30 01:20:32;;;;;;;11.15;4.22;;;;;;;13.96;100.00;101347.66;4908691;29;20055;-80
2023/06/30 01:23:14;;;;;;;9.43;4.07;;;;;;;13.93;100.00;101353.00;4916335;29;20039;-81
2023/06/30 01:25:42;;;;;;;12.73;4.43;;;;;;;13.91;100.00;101346.78;4886344;29;20051;-80
2023/06/30 01:28:11;;;;;;;9.90;3.92;;;;;;;13.89;100.00;101345.03;4958133;28;20067;-80
2023/06/30 01:30:39;;;;;;;12.40;3.60;;;;;;;13.90;100.00;101350.34;4924628;29;20066;-80
2023/06/30 01:33:07;;;;;;;10.55;4.07;;;;;;;13.91;100.00;101343.28;4947804;29;20047;-80
2023/06/30 01:35:35;;;;;;;10.93;4.00;;;;;;;13.92;100.00;101348.56;4944219;28;20525;-80
2023/06/30 01:38:02;;;;;;;8.88;3.60;;;;;;;13.92;100.00;101337.97;4931416;29;20066;-80
2023/06/30 01:40:32;;;;;;;9.07;3.72;;;;;;;13.90;100.00;101342.41;4908424;28;20051;-80
2023/06/30 01:42:59;;;;;;;12.07;3.70;;;;;;;13.90;100.00;101344.16;4953185;28;20062;-82
2023/06/30 01:45:28;;;;;;;10.23;3.92;;;;;;;13.88;100.00;101338.88;4958193;28;20059;-80
2023/06/30 01:47:57;;;;;;;10.07;4.03;;;;;;;13.87;100.00;101345.03;4932843;28;20434;-80
2023/06/30 01:50:29;;;;;;;9.40;3.78;;;;;;;13.84;100.00;101329.19;4937522;28;20063;-79
2023/06/30 01:52:58;;;;;;;11.50;3.95;;;;;;;13.83;100.00;101340.63;4935512;28;20059;-81
2023/06/30 01:55:26;;;;;;;7.53;3.35;;;;;;;13.83;100.00;101335.34;4910290;28;20055;-80
2023/06/30 01:57:53;;;;;;;9.45;3.85;;;;;;;13.83;100.00;101344.16;4931851;29;20043;-81
2023/06/30 02:00:21;;;;;;;10.48;3.63;;;;;;;13.80;100.00;101336.25;4918475;29;20063;-79
2023/06/30 02:02:48;;;;;;;11.90;4.28;;;;;;;13.82;100.00;101338.91;4939875;28;20050;-80
2023/06/30 02:05:16;;;;;;;7.75;3.80;;;;;;;13.79;100.00;101333.59;4935312;29;20047;-80
2023/06/30 02:07:44;;;;;;;11.85;3.92;;;;;;;13.75;100.00;101332.72;4934669;29;20059;-80
2023/06/30 02:10:12;;;;;;;8.43;3.80;;;;;;;13.74;100.00;101332.72;4926625;28;20051;-80
2023/06/30 02:12:41;;;;;;;9.25;3.13;;;;;;;13.73;100.00;101330.97;4964131;28;20518;-80
2023/06/30 02:15:09;;;;;;;7.68;3.30;;;;;;;13.74;100.00;101332.72;4982282;28;20043;-80
2023/06/30 02:17:40;;;;;;;10.07;3.95;;;;;;;13.71;100.00;101333.63;4947852;28;20050;-81
2023/06/30 02:20:08;;;;;;;8.82;3.70;;;;;;;13.68;100.00;101333.59;4956319;28;20054;-80
2023/06/30 02:22:37;;;;;;;9.02;3.90;;;;;;;13.66;100.00;101340.66;4944356;28;20391;-82
2023/06/30 02:25:05;;;;;;;9.43;3.90;;;;;;;13.63;100.00;101340.69;4949716;29;20850;-82
2023/06/30 02:27:33;;;;;;;10.95;4.72;;;;;;;13.60;100.00;101330.09;4916818;28;20047;-82
2023/06/30 02:30:08;;;;;;;9.25;4.03;;;;;;;13.57;100.00;101341.59;4964818;28;20043;-80
2023/06/30 02:32:37;;;;;;;7.60;4.15;;;;;;;13.58;100.00;101334.53;4956164;28;20043;-79
2023/06/30 02:35:07;;;;;;;9.50;4.03;;;;;;;13.58;100.00;101334.53;4949278;29;20051;-81
2023/06/30 02:37:36;;;;;;;7.55;3.60;;;;;;;13.53;100.00;101339.81;4940267;28;20434;-80
2023/06/30 02:40:04;;;;;;;7.32;3.42;;;;;;;13.47;100.00;101334.53;4948470;29;20047;-79
2023/06/30 02:42:32;;;;;;;10.52;4.53;;;;;;;13.41;100.00;101331.88;4878695;29;20499;-81
2023/06/30 02:44:59;;;;;;;7.70;4.13;;;;;;;13.37;100.00;101338.94;4965180;28;20686;-80
2023/06/30 02:47:27;;;;;;;7.57;3.97;;;;;;;13.33;100.00;101347.78;4949006;28;20055;-79
2023/06/30 02:49:55;;;;;;;8.38;3.78;;;;;;;13.30;100.00;101337.19;4916414;29;20046;-81
2023/06/30 02:52:22;;;;;;;11.45;4.35;;;;;;;13.26;100.00;101335.38;4959482;28;20054;-80
2023/06/30 02:54:51;;;;;;;10.07;4.47;;;;;;;13.25;100.00;101349.47;4933944;29;20051;-80
2023/06/30 02:57:21;;;;;;;8.60;4.07;;;;;;;13.21;100.00;101343.34;4924926;28;20055;-81
2023/06/30 02:59:49;;;;;;;8.10;3.95;;;;;;;13.15;100.00;101338.03;4947613;29;20051;-81
2023/06/30 03:02:16;;;;;;;12.10;4.25;;;;;;;13.12;100.00;101335.41;4964535;28;20410;-81
2023/06/30 03:04:44;;;;;;;8.90;4.22;;;;;;;13.06;100.00;101338.91;4943030;28;20055;-79
2023/06/30 03:07:13;;;;;;;9.93;4.20;;;;;;;13.02;100.00;101336.25;4949280;28;20059;-80
2023/06/30 03:09:43;;;;;;;11.52;5.07;;;;;;;12.98;100.00;101332.72;4960444;28;20056;-79
2023/06/30 03:12:13;;;;;;;5.93;4.45;;;;;;;12.92;100.00;101327.44;4910907;28;20055;-80
2023/06/30 03:14:41;;;;;;;12.25;4.43;;;;;;;12.89;100.00;101330.06;4931934;29;20047;-79
2023/06/30 03:17:09;;;;;;;13.40;4.68;;;;;;;12.84;100.00;101326.53;4934688;29;20534;-81
2023/06/30 03:19:36;;;;;;;11.02;4.85;;;;;;;12.81;100.00;101326.53;4938190;28;20047;-80
2023/06/30 03:22:04;;;;;;;9.68;4.35;;;;;;;12.78;100.00;101327.41;4947654;29;20459;-81
2023/06/30 03:24:32;;;;;;;18.15;4.60;;;;;;;12.77;100.00;101328.28;4943518;28;20046;-79
2023/06/30 03:26:59;;;;;;;13.05;5.07;;;;;;;12.76;100.00;101317.69;4915824;28;20541;-81
2023/06/30 03:29:27;;;;;;;10.88;5.15;;;;;;;12.75;100.00;101323.88;4933277;29;20051;-80
2023/06/30 03:31:56;;;;;;;10.05;4.97;;;;;;;12.73;100.00;101317.72;4946718;28;20646;-81
2023/06/30 03:34:24;;;;;;;8.57;4.88;;;;;;;12.70;100.00;101321.22;4960263;28;20046;-81
2023/06/30 03:36:51;;;;;;;10.43;4.85;;;;;;;12.69;100.00;101322.09;4932673;29;20054;-81
2023/06/30 03:39:20;;;;;;;9.65;4.90;;;;;;;12.67;100.00;101316.81;4935279;29;20055;-81
2023/06/30 03:41:48;;;;;;;14.73;5.00;;;;;;;12.64;100.00;101326.50;4922870;28;20757;-81
2023/06/30 03:44:17;;;;;;;10.05;4.10;;;;;;;12.63;100.00;101316.81;4965616;28;20499;-80
2023/06/30 03:46:45;;;;;;;9.43;4.32;;;;;;;12.59;100.00;101322.94;4961584;28;20055;-80
2023/06/30 03:49:12;;;;;;;7.88;4.95;;;;;;;12.58;100.00;101322.06;4938613;28;20055;-80
2023/06/30 03:51:41;;;;;;;8.32;4.40;;;;;;;12.57;100.00;101317.69;4946691;29;20051;-82
2023/06/30 03:54:09;;;;;;;11.18;5.22;;;;;;;12.56;100.00;101328.25;4960378;28;20063;-80
2023/06/30 03:56:36;;;;;;;9.15;4.97;;;;;;;12.56;100.00;101321.19;4923537;28;20051;-81
2023/06/30 03:59:05;;;;;;;12.50;4.82;;;;;;;12.55;100.00;101327.38;4915310;29;20054;-80
2023/06/30 04:01:33;;;;;;;11.50;4.32;;;;;;;12.52;100.00;101319.41;4953763;28;20062;-80
2023/06/30 04:04:02;;;;;;;10.75;6.47;;;;;;;12.51;100.00;101319.41;4912953;28;20102;-82
2023/06/30 04:06:33;;;;;;;8.40;4.53;;;;;;;12.53;100.00;101325.59;4942751;28;20181;-80
2023/06/30 04:09:00;;;;;;;;;;;;;;;12.55;100.00;101329.13;4936751;29;20051;-81
2023/06/30 04:11:28;;;;;;;12.95;4.60;;;;;;;12.58;100.00;101324.72;4922733;29;19930;-80
2023/06/30 04:13:57;;;;;;;7.07;4.22;;;;;;;12.87;100.00;101329.19;4893200;29;20055;-80
2023/06/30 04:16:25;;;;;;;9.75;4.32;;;;;;;13.29;100.00;101322.16;4944910;29;20534;-80
2023/06/30 04:18:55;;;;;;;11.15;3.83;;;;;;;13.72;100.00;101323.88;4949160;29;20054;-80
2023/06/30 04:21:22;;;;;;;8.18;3.75;;;;;;;14.14;100.00;101314.94;4908022;29;20047;-80
2023/06/30 04:23:50;;;;;;;10.43;3.97;;;;;;;14.65;100.00;101316.47;4944144;28;20149;-80
2023/06/30 04:26:17;;;;;;;4.13;3.42;;;;;;;15.19;100.00;101320.50;4938074;28;20097;-80
2023/06/30 04:28:45;;;;;;;7.43;3.00;;;;;;;15.73;100.00;101329.75;4917342;28;20047;-81
2023/06/30 04:31:13;;;;;;;4.60;2.75;;;;;;;16.24;100.00;101316.78;4978888;28;20074;-81
2023/06/30 04:33:40;;;;;;;5.65;2.92;;;;;;;16.68;100.00;101312.63;4956754;28;20427;-81
2023/06/30 04:36:08;;;;;;;9.90;2.70;;;;;;;17.09;100.00;101324.44;4907230;29;20051;-79
2023/06/30 04:38:36;;;;;;;7.70;2.50;;;;;;;17.48;100.00;101322.00;4929160;28;20820;-81
2023/06/30 04:41:03;;;;;;;5.10;2.10;;;;;;;17.94;100.00;101325.63;4943698;28;20055;-79
2023/06/30 04:43:31;;;;;;;8.88;2.92;;;;;;;18.48;100.00;101328.03;4904564;28;20165;-79
2023/06/30 04:45:58;;;;;;;11.73;3.13;;;;;;;18.91;100.00;101326.22;4900474;29;20059;-80
2023/06/30 04:48:26;;;;;;;5.38;2.42;;;;;;;19.44;100.00;101324.00;4945739;29;20055;-79
2023/06/30 04:50:54;;;;;;;6.60;2.05;;;;;;;19.97;100.00;101320.81;4945167;29;20541;-80
2023/06/30 04:53:21;;;;;;;4.38;1.95;;;;;;;20.40;100.00;101324.91;4943151;28;20051;-80
2023/06/30 04:55:51;;;;;;;9.90;2.60;;;;;;;20.77;100.00;101320.25;4925402;29;20051;-77
2023/06/30 04:58:18;;;;;;;7.13;2.47;;;;;;;20.99;100.00;101332.03;4947639;28;20043;-79
2023/06/30 05:00:46;;;;;;;6.38;2.00;;;;;;;21.21;100.00;101320.63;4928302;28;20502;-80
2023/06/30 05:03:14;;;;;;;5.90;2.20;;;;;;;21.39;100.00;101325.31;4977855;28;20047;-81
2023/06/30 05:05:41;;;;;;;3.03;2.13;;;;;;;21.69;100.00;101319.00;4917889;29;20055;-80
2023/06/30 05:08:10;;;;;;;7.47;2.17;;;;;;;21.73;100.00;101321.50;4933845;28;20051;-82
2023/06/30 05:10:37;;;;;;;6.90;1.80;;;;;;;21.59;100.00;101319.31;4955429;28;20059;-81
2023/06/30 05:13:05;;;;;;;6.75;1.83;;;;;;;21.36;100.00;101314.72;4938752;28;20446;-82
2023/06/30 05:15:32;;;;;;;4.97;2.30;;;;;;;21.13;100.00;101322.66;4910107;28;20047;-80
2023/06/30 05:18:00;;;;;;;8.13;2.30;;;;;;;20.89;100.00;101322.53;4946971;28;20058;-80
2023/06/30 05:20:28;;;;;;;8.45;2.25;;;;;;;20.53;100.00;101328.09;4947895;29;20047;-80
2023/06/30 05:22:55;;;;;;;6.82;2.45;;;;;;;20.51;100.00;101321.91;4923331;29;20058;-81
2023/06/30 05:25:22;;;;;;;11.93;2.65;;;;;;;20.59;100.00;101330.59;4930417;29;20051;-80
2023/06/30 05:27:50;;;;;;;4.05;1.80;;;;;;;20.35;100.00;101331.31;4954934;28;20063;-81
2023/06/30 05:30:18;;;;;;;4.55;2.20;;;;;;;20.12;100.00;101327.53;4917638;28;24331;-80
2023/06/30 05:32:45;;;;;;;2.80;2.03;;;;;;;19.87;100.00;101330.03;4966663;28;20521;-81
2023/06/30 05:35:13;;;;;;;6.60;2.30;;;;;;;19.57;100.00;101326.38;4924089;29;20069;-82
2023/06/30 05:37:41;;;;;;;7.47;2.33;;;;;;;19.60;100.00;101329.84;4922374;28;20043;-80
2023/06/30 05:40:08;;;;;;;2.65;1.58;;;;;;;20.21;100.00;101327.25;4938649;29;20058;-80
2023/06/30 05:42:36;;;;;;;5.70;1.83;;;;;;;20.96;100.00;101323.19;4956277;28;20043;-81
2023/06/30 05:45:04;;;;;;;7.45;1.73;;;;;;;21.70;100.00;101318.03;4968223;28;20466;-80
2023/06/30 05:47:31;;;;;;;3.47;1.50;;;;;;;22.37;100.00;101317.38;4948690;28;20043;-81
2023/06/30 05:49:59;;;;;;;6.50;1.45;;;;;;;22.72;100.00;101323.16;4956298;28;20047;-82
2023/06/30 05:52:27;;;;;;;4.43;2.05;;;;;;;23.05;100.00;101320.09;4955790;28;20063;-81
2023/06/30 05:54:54;;;;;;;3.22;1.50;;;;;;;23.43;100.00;101320.28;4936469;28;20541;-81
2023/06/30 05:57:21;;;;;;;3.03;1.63;;;;;;;23.72;100.00;101321.69;4984163;28;20061;-81
2023/06/30 05:59:49;;;;;;;3.25;1.30;;;;;;;23.93;100.00;101322.56;4977637;28;20050;-82
2023/06/30 06:02:16;;;;;;;2.80;1.20;;;;;;;24.27;100.00;101318.34;4932488;28;20051;-80
2023/06/30 06:04:44;;;;;;;4.10;1.40;;;;;;;24.63;100.00;101321.16;4966373;28;20051;-82
2023/06/30 06:07:12;;;;;;;3.60;1.35;;;;;;;24.75;98.47;101322.38;4951856;28;20046;-82
2023/06/30 06:09:39;;;;;;;4.85;1.40;;;;;;;24.69;96.64;101325.38;4934085;28;20050;-81
2023/06/30 06:12:07;;;;;;;2.25;1.20;;;;;;;24.37;95.57;101322.34;4937061;28;20078;-81
2023/06/30 06:14:34;;;;;;;6.65;1.65;;;;;;;24.09;94.98;101333.53;4932325;28;20047;-81
2023/06/30 06:17:02;;;;;;;4.40;1.67;;;;;;;23.62;95.32;101331.97;4961146;28;20047;-81
2023/06/30 06:19:29;;;;;;;3.75;1.20;;;;;;;23.41;96.79;101328.41;4914231;28;20078;-80
2023/06/30 06:21:56;;;;;;;4.88;1.77;;;;;;;23.30;94.88;101322.63;4956503;29;20043;-81
2023/06/30 06:24:24;;;;;;;3.42;1.33;;;;;;;23.01;94.95;101329.19;4979316;28;20062;-80
2023/06/30 06:26:51;;;;;;;2.38;1.35;;;;;;;22.74;97.35;101332.94;4944891;28;20047;-81
2023/06/30 06:29:21;;;;;;;5.13;1.20;;;;;;;22.62;98.68;101336.09;4937381;28;20062;-81
2023/06/30 06:31:50;;;;;;;3.10;1.50;;;;;;;22.68;99.22;101330.47;4924493;28;20051;-80
2023/06/30 06:34:18;;;;;;;2.63;1.20;;;;;;;22.63;98.10;101331.59;4913157;28;20047;-82
2023/06/30 06:36:47;;;;;;;3.95;1.40;;;;;;;22.50;97.32;101334.78;4952643;28;20103;-81
2023/06/30 06:39:14;;;;;;;3.47;1.20;;;;;;;22.20;97.76;101337.66;4932476;29;20051;-81
2023/06/30 06:41:42;;;;;;;5.78;1.15;;;;;;;22.02;98.07;101343.69;4951036;28;20794;-81
2023/06/30 06:44:15;;;;;;;2.55;1.02;;;;;;;21.77;97.92;101343.72;4965100;28;20726;-80
2023/06/30 06:46:43;;;;;;;1.35;0.98;;;;;;;21.62;98.51;101347.81;4940508;28;20058;-81
2023/06/30 06:49:11;;;;;;;2.47;1.10;;;;;;;21.37;99.55;101347.75;4901200;29;20507;-81
2023/06/30 06:51:38;;;;;;;3.97;1.20;;;;;;;21.17;100.00;101351.09;4910601;29;20070;-80
2023/06/30 06:54:05;;;;;;;1.60;0.95;;;;;;;21.02;100.00;101347.16;4951733;29;20054;-80
2023/06/30 06:56:33;;;;;;;4.82;1.10;;;;;;;21.13;100.00;101344.09;4925480;28;20061;-81
2023/06/30 06:59:00;;;;;;;3.92;1.27;;;;;;;21.11;100.00;101343.25;4951247;29;20078;-80
2023/06/30 07:01:28;;;;;;;5.53;1.80;;;;;;;20.98;100.00;101343.69;4927089;28;20655;-80
2023/06/30 07:03:55;;;;;;;4.13;1.67;;;;;;;20.89;100.00;101343.97;4927986;29;20055;-80
2023/06/30 07:06:24;;;;;;;4.55;1.45;;;;;;;20.72;100.00;101351.63;4915246;28;20062;-80
2023/06/30 07:08:52;;;;;;;2.42;1.33;;;;;;;20.53;100.00;101337.91;4932570;29;20051;-79
2023/06/30 07:11:19;;;;;;;0.80;0.80;;;;;;;20.31;100.00;101345.72;4942983;28;20047;-80
2023/06/30 07:13:46;;;;;;;4.10;1.02;;;;;;;20.07;100.00;101345.50;4932027;29;20055;-80
2023/06/30 07:16:17;;;;;;;1.35;0.90;;;;;;;19.88;100.00;101353.16;4931270;28;20056;-82
2023/06/30 07:18:45;;;;;;;7.20;1.63;;;;;;;19.75;100.00;101349.94;4962274;28;20503;-81
2023/06/30 07:21:13;;;;;;;5.97;1.20;;;;;;;19.66;100.00;101351.06;4927116;28;20047;-81
2023/06/30 07:23:40;;;;;;;1.20;1.10;;;;;;;19.66;100.00;101347.50;4932387;28;20058;-82
2023/06/30 07:26:08;;;;;;;2.42;1.23;;;;;;;19.71;100.00;101344.69;4967365;28;20054;-81
2023/06/30 07:28:36;;;;;;;3.95;1.65;;;;;;;19.89;100.00;101346.03;4940575;28;20055;-82
2023/06/30 07:31:03;;;;;;;3.20;1.02;;;;;;;20.00;100.00;101338.56;4917604;29;20043;-82
2023/06/30 07:33:30;;;;;;;1.92;1.05;;;;;;;19.97;100.00;101342.22;4938885;28;20418;-81
2023/06/30 07:35:58;;;;;;;3.83;1.10;;;;;;;19.86;100.00;101345.19;4893768;29;20119;-80
2023/06/30 07:38:25;;;;;;;2.38;0.85;;;;;;;19.70;100.00;101341.16;4939357;28;20059;-81
2023/06/30 07:40:53;;;;;;;3.92;1.00;;;;;;;19.65;100.00;101337.72;4947212;29;20058;-82
2023/06/30 07:43:23;;;;;;;0.90;0.80;;;;;;;19.59;100.00;101340.56;4922026;28;20051;-82
2023/06/30 07:45:51;;;;;;;2.13;0.80;;;;;;;19.57;100.00;101337.91;4936249;29;20054;-82
2023/06/30 07:48:19;;;;;;;3.88;1.10;;;;;;;19.65;100.00;101343.94;4942941;28;20051;-80
2023/06/30 07:50:46;;;;;;;2.97;0.77;;;;;;;19.63;100.00;101336.88;4944189;28;20055;-81
2023/06/30 07:53:33;;;;;;;4.75;1.10;;;;;;;19.75;100.00;101338.38;4914226;28;20438;-81
2023/06/30 07:56:01;;;;;;;3.42;1.30;;;;;;;19.82;100.00;101334.63;4922911;29;20070;-80
2023/06/30 07:58:31;;;;;;;2.58;1.10;;;;;;;19.89;100.00;101338.00;4939028;28;20046;-80
2023/06/30 08:00:58;;;;;;;2.67;1.10;;;;;;;19.96;100.00;101334.22;4933233;29;20051;-80
2023/06/30 08:03:26;;;;;;;3.10;1.52;;;;;;;19.99;100.00;101340.38;4938751;28;20687;-81
2023/06/30 08:05:56;;;;;;;3.70;1.10;;;;;;;19.98;100.00;101340.41;4956807;28;20050;-81
2023/06/30 08:08:24;;;;;;;3.90;1.00;;;;;;;19.87;100.00;101335.38;4899725;29;20051;-80
2023/06/30 08:10:51;;;;;;;2.33;1.48;;;;;;;19.75;100.00;101346.41;4939432;28;20054;-80
2023/06/30 08:13:19;;;;;;;2.85;1.15;;;;;;;19.62;100.00;101346.72;4948767;29;20502;-81
2023/06/30 08:15:46;;;;;;;2.33;1.30;;;;;;;19.51;100.00;101347.88;4946593;28;20055;-80
2023/06/30 08:18:16;;;;;;;2.40;1.20;;;;;;;19.44;100.00;101345.38;4949379;28;20530;-80
2023/06/30 08:21:00;;;;;;;4.05;1.23;;;;;;;19.45;100.00;101343.56;4942859;28;20078;-80
2023/06/30 08:23:28;;;;;;;1.52;0.98;;;;;;;19.43;100.00;101337.41;4902068;28;20054;-80
2023/06/30 08:25:55;;;;;;;7.13;1.55;;;;;;;19.46;100.00;101350.69;4923593;29;20058;-81
2023/06/30 08:28:23;;;;;;;6.45;1.42;;;;;;;19.45;100.00;101354.25;4962151;28;20062;-80
2023/06/30 08:30:51;;;;;;;5.05;1.50;;;;;;;19.38;100.00;101353.56;4933465;28;20047;-80
2023/06/30 08:33:21;;;;;;;2.60;1.05;;;;;;;19.26;100.00;101353.84;4951061;29;20042;-81
2023/06/30 08:36:05;;;;;;;5.85;1.80;;;;;;;19.15;100.00;101339.88;4942770;28;20063;-80
2023/06/30 08:38:32;;;;;;;2.72;0.93;;;;;;;19.18;100.00;101347.84;4928889;28;20062;-80
2023/06/30 08:41:00;;;;;;;4.78;1.33;;;;;;;19.27;100.00;101342.25;4916960;29;20035;-80
2023/06/30 08:43:30;;;;;;;1.23;0.77;;;;;;;19.40;100.00;101340.16;4939773;28;20047;-80
2023/06/30 08:46:01;;;;;;;2.20;0.80;;;;;;;19.52;100.00;101338.97;4959212;28;20059;-80
2023/06/30 08:48:30;;;;;;;5.13;0.85;;;;;;;19.67;100.00;101334.06;4958190;28;20051;-81
2023/06/30 08:50:59;;;;;;;2.63;1.02;;;;;;;19.70;100.00;101335.81;4946289;28;20046;-81
2023/06/30 08:53:28;;;;;;;9.63;1.00;;;;;;;19.69;100.00;101328.69;4942511;28;20050;-79
2023/06/30 08:55:58;;;;;;;2.77;0.90;;;;;;;19.75;100.00;101333.91;4899553;29;20043;-81
2023/06/30 08:58:27;;;;;;;1.52;0.80;;;;;;;19.81;98.80;101332.84;4890440;29;20062;-79
2023/06/30 09:00:57;;;;;;;1.55;0.90;;;;;;;19.90;97.64;101316.56;4932711;29;20494;-81
2023/06/30 09:03:26;;;;;;;3.85;1.23;;;;;;;19.97;97.14;101331.50;4922170;29;20047;-80
2023/06/30 09:05:56;;;;;;;2.72;0.70;;;;;;;20.01;96.47;101322.47;4958964;28;20059;-81
2023/06/30 09:08:46;;;;;;;2.58;0.98;;;;;;;19.95;94.29;101328.00;4934661;28;20047;-80
2023/06/30 09:11:15;;;;;;;0.50;0.50;;;;;;;19.94;93.11;101334.25;4927234;28;20048;-81
2023/06/30 09:13:45;;;;;;;1.58;0.70;;;;;;;19.98;92.08;101337.72;4943807;28;20399;-81
2023/06/30 09:16:17;;;;;;;1.15;0.80;;;;;;;20.00;83.82;101330.53;4951522;29;20047;-81
2023/06/30 09:18:47;;;;;;;3.78;0.77;;;;;;;20.04;84.84;101330.44;4947152;28;20047;-80
2023/06/30 09:21:17;;;;;;;1.67;0.63;;;;;;;20.12;85.20;101323.97;4949739;28;20422;-82
2023/06/30 09:23:46;;;;;;;1.88;1.00;;;;;;;20.25;87.66;101336.09;4939605;28;20054;-82
2023/06/30 09:26:17;;;;;;;2.25;0.98;;;;;;;20.32;88.62;101340.34;4909642;29;20043;-83
2023/06/30 09:28:45;;;;;;;3.45;0.90;;;;;;;20.35;89.46;101336.69;4950293;28;20112;-83
2023/06/30 09:31:14;;;;;;;2.00;0.98;;;;;;;20.41;89.98;101337.34;4952367;28;20059;-83
2023/06/30 09:33:44;;;;;;;3.17;1.00;;;;;;;20.32;90.50;101340.34;4952592;28;20055;-82
2023/06/30 09:36:17;;;;;;;5.07;0.90;;;;;;;20.35;90.94;101320.63;4935554;29;20066;-82
2023/06/30 09:38:45;;;;;;;3.42;0.95;;;;;;;20.39;91.61;101332.97;4942702;28;20051;-82
2023/06/30 09:41:22;;;;;;;5.00;0.95;;;;;;;20.30;90.62;101327.91;4885799;29;20074;-82
2023/06/30 09:43:56;;;;;;;4.47;0.88;;;;;;;20.32;92.65;101321.59;4947642;28;20051;-83
2023/06/30 09:46:28;;;;;;;2.50;0.80;;;;;;;20.31;88.20;101325.19;4933389;29;20542;-82
2023/06/30 09:48:56;;;;;;;4.10;1.08;;;;;;;20.27;89.77;101322.66;4969449;28;20054;-83
2023/06/30 09:51:23;;;;;;;4.82;1.13;;;;;;;20.18;91.05;101331.81;4930327;29;20065;-83
2023/06/30 09:53:54;;;;;;;2.65;1.08;;;;;;;20.09;92.50;101329.41;4948877;28;20167;-81
2023/06/30 09:56:23;;;;;;;4.72;1.00;;;;;;;19.99;92.64;101328.81;4914983;28;20050;-82
2023/06/30 09:58:56;;;;;;;3.38;0.93;;;;;;;19.94;92.93;101320.88;4946527;28;20059;-82
2023/06/30 10:01:24;;;;;;;2.58;1.40;;;;;;;19.96;93.09;101307.47;4935219;29;20047;-81
2023/06/30 10:03:55;;;;;;;2.85;1.00;;;;;;;20.05;93.79;101313.44;4935384;29;20051;-82
2023/06/30 10:06:23;;;;;;;2.00;1.30;;;;;;;20.28;95.67;101313.69;4939749;28;20043;-82
2023/06/30 10:08:51;;;;;;;2.40;1.30;;;;;;;20.32;92.11;101323.38;4948955;28;20050;-81
2023/06/30 10:11:22;;;;;;;2.30;1.33;;;;;;;20.23;90.97;101320.06;4917741;28;20055;-82
2023/06/30 10:13:57;;;;;;;6.53;1.25;;;;;;;20.19;90.69;101318.41;4923721;28;20051;-82
2023/06/30 10:16:26;;;;;;;4.38;1.10;;;;;;;20.12;90.35;101330.19;4920386;29;20059;-82
2023/06/30 10:18:55;;;;;;;0.80;0.80;;;;;;;20.13;90.78;101323.03;4958833;29;20066;-82
2023/06/30 10:21:23;;;;;;;2.00;0.90;;;;;;;20.22;91.90;101310.28;4931092;28;20051;-82
2023/06/30 10:23:52;;;;;;;4.07;0.98;;;;;;;20.31;91.21;101317.16;4953680;28;20054;-82
2023/06/30 10:26:21;;;;;;;1.15;0.88;;;;;;;20.29;88.85;101323.50;4938312;29;20042;-84
2023/06/30 10:28:49;;;;;;;3.30;0.90;;;;;;;20.19;88.71;101326.44;4938886;28;20051;-85
2023/06/30 10:31:17;;;;;;;2.08;0.85;;;;;;;20.16;88.97;101320.28;4938578;28;20079;-81
2023/06/30 10:33:44;;;;;;;2.65;1.10;;;;;;;20.09;89.22;101324.06;4919815;29;20499;-80
2023/06/30 10:36:13;;;;;;;2.08;0.88;;;;;;;20.05;90.76;101321.47;4963195;28;20055;-79
2023/06/30 10:38:46;;;;;;;1.45;0.98;;;;;;;20.08;90.95;101315.16;4942763;28;20063;-81
2023/06/30 10:41:19;;;;;;;3.30;1.08;;;;;;;20.16;91.47;101307.78;4946248;29;20046;-80
2023/06/30 10:44:07;;;;;;;3.40;0.88;;;;;;;20.28;88.34;101311.88;4881997;28;20066;-80
2023/06/30 10:46:42;;;;;;;2.25;0.73;;;;;;;20.33;87.11;101312.63;4968045;28;20062;-79
2023/06/30 10:49:29;;;;;;;3.22;1.13;;;;;;;20.44;86.97;101312.31;4943142;28;20047;-79
2023/06/30 10:52:02;;;;;;;1.23;0.90;;;;;;;20.60;86.69;101308.28;4947332;29;20050;-81
2023/06/30 10:54:47;;;;;;;1.98;0.90;;;;;;;20.84;83.81;101303.94;4939773;28;20047;-81
2023/06/30 10:57:25;;;;;;;1.20;0.95;;;;;;;21.11;85.11;101297.72;4928493;29;20078;-80
2023/06/30 11:00:10;;;;;;;3.47;0.93;;;;;;;21.14;83.81;101297.63;4916173;28;20054;-82
2023/06/30 11:02:55;;;;;;;2.38;1.00;;;;;;;21.03;83.32;101304.19;4932672;29;20110;-82
2023/06/30 11:05:30;;;;;;;3.28;1.00;;;;;;;20.96;84.13;101294.63;4942819;28;20074;-81
2023/06/30 11:08:21;;;;;;;1.13;0.85;;;;;;;20.99;78.01;101297.19;4947891;29;20062;-80
2023/06/30 11:10:50;;;;;;;2.60;0.90;;;;;;;21.10;78.85;101291.50;4926141;28;20062;-81
2023/06/30 11:13:36;;;;;;;4.63;1.17;;;;;;;21.22;77.22;101291.06;4952907;28;20059;-81
2023/06/30 11:16:05;;;;;;;2.28;0.82;;;;;;;21.38;77.08;101286.06;4894446;28;20055;-81
2023/06/30 11:18:33;;;;;;;2.42;0.98;;;;;;;21.53;76.90;101273.06;4958665;28;20044;-80
2023/06/30 11:21:05;;;;;;;1.05;0.88;;;;;;;21.58;74.03;101279.13;4972012;28;20430;-81
2023/06/30 11:23:38;;;;;;;2.13;0.80;;;;;;;21.51;75.86;101278.50;4940412;28;20213;-82
2023/06/30 11:26:13;;;;;;;2.70;1.10;;;;;;;21.45;72.98;101277.81;4951538;28;20043;-82
2023/06/30 11:28:43;;;;;;;0.77;0.70;;;;;;;21.34;74.99;101284.41;4934599;28;20059;-82